sensor_id;sensor_type;location;lat;lon;timestamp;temperature;humidity
10883;DHT22;5494;51.796;10.952;2022-12-10T00:01:48;-1.20;99.90
10883;DHT22;5494;51.796;10.952;2022-12-10T00:04:18;-0.30;99.90
10883;DHT22;5494;51.796;10.952;2022-12-10T00:06:46;-0.30;99.90
10883;DHT22;5494;51.796;10.952;2022-12-10T00:09:17;-0.40;99.90
10883;DHT22;5494;51.796;10.952;2022-12-10T00:11:47;-0.30;99.90
10883;DHT22;5494;51.796;10.952;2022-12-10T00:14:17;-0.30;99.90
10883;DHT22;5494;51.796;10.952;2022-12-10T00:16:46;-0.30;99.90
10883;DHT22;5494;51.796;10.952;2022-12-10T00:19:14;-0.20;99.90
10883;DHT22;5494;51.796;10.952;2022-12-10T00:21:43;-0.20;99.90
10883;DHT22;5494;51.796;10.952;2022-12-10T00:24:15;-0.30;99.90
10883;DHT22;5494;51.796;10.952;2022-12-10T00:26:43;-0.40;99.90
10883;DHT22;5494;51.796;10.952;2022-12-10T00:29:12;-0.40;99.90
10883;DHT22;5494;51.796;10.952;2022-12-10T00:31:45;-0.30;99.90
10883;DHT22;5494;51.796;10.952;2022-12-10T00:34:13;-0.30;99.90
10883;DHT22;5494;51.796;10.952;2022-12-10T00:36:42;-0.30;99.90
10883;DHT22;5494;51.796;10.952;2022-12-10T00:39:15;-0.30;99.90
10883;DHT22;5494;51.796;10.952;2022-12-10T00:41:45;-0.30;99.90
10883;DHT22;5494;51.796;10.952;2022-12-10T00:44:15;-0.20;99.90
10883;DHT22;5494;51.796;10.952;2022-12-10T00:46:45;-0.20;99.90
10883;DHT22;5494;51.796;10.952;2022-12-10T00:49:13;-0.20;99.90
10883;DHT22;5494;51.796;10.952;2022-12-10T00:51:41;-0.30;99.90
10883;DHT22;5494;51.796;10.952;2022-12-10T00:54:10;-0.40;99.90
10883;DHT22;5494;51.796;10.952;2022-12-10T00:56:39;-0.40;99.90
10883;DHT22;5494;51.796;10.952;2022-12-10T00:59:07;-0.30;99.90
10883;DHT22;5494;51.796;10.952;2022-12-10T01:01:38;-0.30;99.90
10883;DHT22;5494;51.796;10.952;2022-12-10T01:04:10;-0.30;99.90
10883;DHT22;5494;51.796;10.952;2022-12-10T01:06:42;-0.20;99.90
10883;DHT22;5494;51.796;10.952;2022-12-10T01:09:14;-0.20;99.90
10883;DHT22;5494;51.796;10.952;2022-12-10T01:11:46;-0.30;99.90
10883;DHT22;5494;51.796;10.952;2022-12-10T01:14:17;-0.30;99.90
10883;DHT22;5494;51.796;10.952;2022-12-10T01:16:47;-0.30;99.90
10883;DHT22;5494;51.796;10.952;2022-12-10T01:19:17;-0.20;99.90
10883;DHT22;5494;51.796;10.952;2022-12-10T01:21:45;0.00;99.90
10883;DHT22;5494;51.796;10.952;2022-12-10T01:24:17;0.00;99.90
10883;DHT22;5494;51.796;10.952;2022-12-10T01:26:46;-0.10;99.90
10883;DHT22;5494;51.796;10.952;2022-12-10T01:29:14;-0.10;99.90
10883;DHT22;5494;51.796;10.952;2022-12-10T01:31:43;-0.10;99.90
10883;DHT22;5494;51.796;10.952;2022-12-10T01:34:14;0.00;99.90
10883;DHT22;5494;51.796;10.952;2022-12-10T01:36:45;0.00;99.90
10883;DHT22;5494;51.796;10.952;2022-12-10T01:39:18;0.00;99.90
10883;DHT22;5494;51.796;10.952;2022-12-10T01:41:50;0.00;99.90
10883;DHT22;5494;51.796;10.952;2022-12-10T01:47:38;0.00;99.90
10883;DHT22;5494;51.796;10.952;2022-12-10T01:50:07;-0.10;99.90
10883;DHT22;5494;51.796;10.952;2022-12-10T01:52:38;-0.20;99.90
10883;DHT22;5494;51.796;10.952;2022-12-10T01:55:35;-0.20;99.90
10883;DHT22;5494;51.796;10.952;2022-12-10T01:58:08;-0.10;99.90
10883;DHT22;5494;51.796;10.952;2022-12-10T02:00:46;-0.10;99.90
10883;DHT22;5494;51.796;10.952;2022-12-10T02:03:27;-0.10;99.90
10883;DHT22;5494;51.796;10.952;2022-12-10T02:06:12;0.00;99.90
10883;DHT22;5494;51.796;10.952;2022-12-10T02:08:56;0.00;99.90
10883;DHT22;5494;51.796;10.952;2022-12-10T02:11:38;-0.10;99.90
10883;DHT22;5494;51.796;10.952;2022-12-10T02:14:17;-0.10;99.90
10883;DHT22;5494;51.796;10.952;2022-12-10T02:16:56;-0.10;99.90
10883;DHT22;5494;51.796;10.952;2022-12-10T02:19:40;-0.10;99.90
10883;DHT22;5494;51.796;10.952;2022-12-10T02:22:21;0.00;99.90
10883;DHT22;5494;51.796;10.952;2022-12-10T02:24:55;0.00;99.90
10883;DHT22;5494;51.796;10.952;2022-12-10T02:27:32;-0.10;99.90
10883;DHT22;5494;51.796;10.952;2022-12-10T02:30:10;-0.10;99.90
10883;DHT22;5494;51.796;10.952;2022-12-10T02:32:40;-0.20;99.90
10883;DHT22;5494;51.796;10.952;2022-12-10T02:35:14;-0.20;99.90
10883;DHT22;5494;51.796;10.952;2022-12-10T02:37:49;-0.20;99.90
10883;DHT22;5494;51.796;10.952;2022-12-10T02:40:24;-0.20;99.90
10883;DHT22;5494;51.796;10.952;2022-12-10T02:42:55;-0.20;99.90
10883;DHT22;5494;51.796;10.952;2022-12-10T02:45:27;-0.30;99.90
10883;DHT22;5494;51.796;10.952;2022-12-10T02:48:00;-0.30;99.90
10883;DHT22;5494;51.796;10.952;2022-12-10T02:50:37;-0.40;99.90
10883;DHT22;5494;51.796;10.952;2022-12-10T02:53:05;-0.40;99.90
10883;DHT22;5494;51.796;10.952;2022-12-10T02:55:46;-0.40;99.90
10883;DHT22;5494;51.796;10.952;2022-12-10T02:58:30;-0.30;99.90
10883;DHT22;5494;51.796;10.952;2022-12-10T03:01:12;-0.30;99.90
10883;DHT22;5494;51.796;10.952;2022-12-10T03:03:56;-0.40;99.90
10883;DHT22;5494;51.796;10.952;2022-12-10T03:06:32;-0.50;99.90
10883;DHT22;5494;51.796;10.952;2022-12-10T03:09:08;-0.30;99.90
10883;DHT22;5494;51.796;10.952;2022-12-10T03:11:41;-0.30;99.90
10883;DHT22;5494;51.796;10.952;2022-12-10T03:14:14;-0.40;99.90
10883;DHT22;5494;51.796;10.952;2022-12-10T03:16:53;-0.40;99.90
10883;DHT22;5494;51.796;10.952;2022-12-10T03:19:26;-0.50;99.90
10883;DHT22;5494;51.796;10.952;2022-12-10T03:22:08;-0.60;99.90
10883;DHT22;5494;51.796;10.952;2022-12-10T03:24:41;-0.60;99.90
10883;DHT22;5494;51.796;10.952;2022-12-10T03:27:12;-0.50;99.90
10883;DHT22;5494;51.796;10.952;2022-12-10T03:29:46;-0.40;99.90
10883;DHT22;5494;51.796;10.952;2022-12-10T03:32:23;-0.40;99.90
10883;DHT22;5494;51.796;10.952;2022-12-10T03:34:56;-0.50;99.90
10883;DHT22;5494;51.796;10.952;2022-12-10T03:37:27;-0.50;99.90
10883;DHT22;5494;51.796;10.952;2022-12-10T03:39:57;-0.40;99.90
10883;DHT22;5494;51.796;10.952;2022-12-10T03:42:26;-0.30;99.90
10883;DHT22;5494;51.796;10.952;2022-12-10T03:44:54;-0.50;99.90
10883;DHT22;5494;51.796;10.952;2022-12-10T03:47:24;-0.50;99.90
10883;DHT22;5494;51.796;10.952;2022-12-10T03:49:52;-0.60;99.90
10883;DHT22;5494;51.796;10.952;2022-12-10T03:52:20;-0.50;99.90
10883;DHT22;5494;51.796;10.952;2022-12-10T03:54:49;-0.50;99.90
10883;DHT22;5494;51.796;10.952;2022-12-10T03:57:17;-0.60;99.90
10883;DHT22;5494;51.796;10.952;2022-12-10T03:59:45;-0.60;99.90
10883;DHT22;5494;51.796;10.952;2022-12-10T04:02:13;-0.60;99.90
10883;DHT22;5494;51.796;10.952;2022-12-10T04:04:43;-0.50;99.90
10883;DHT22;5494;51.796;10.952;2022-12-10T04:07:11;-0.40;99.90
10883;DHT22;5494;51.796;10.952;2022-12-10T04:09:39;-0.40;99.90
10883;DHT22;5494;51.796;10.952;2022-12-10T04:12:07;-0.40;99.90
10883;DHT22;5494;51.796;10.952;2022-12-10T04:14:36;-0.40;99.90
10883;DHT22;5494;51.796;10.952;2022-12-10T04:17:21;-0.50;99.90
10883;DHT22;5494;51.796;10.952;2022-12-10T04:19:51;0.10;99.90
10883;DHT22;5494;51.796;10.952;2022-12-10T04:22:19;-0.40;99.90
10883;DHT22;5494;51.796;10.952;2022-12-10T04:25:05;-0.60;99.90
10883;DHT22;5494;51.796;10.952;2022-12-10T04:27:47;-0.60;99.90
10883;DHT22;5494;51.796;10.952;2022-12-10T04:30:15;-0.60;99.90
10883;DHT22;5494;51.796;10.952;2022-12-10T04:32:43;-0.70;99.90
10883;DHT22;5494;51.796;10.952;2022-12-10T04:35:13;-0.70;99.90
10883;DHT22;5494;51.796;10.952;2022-12-10T04:37:41;-0.70;99.90
10883;DHT22;5494;51.796;10.952;2022-12-10T04:40:10;-0.70;99.90
10883;DHT22;5494;51.796;10.952;2022-12-10T04:42:38;-0.80;99.90
10883;DHT22;5494;51.796;10.952;2022-12-10T04:45:07;-0.80;99.90
10883;DHT22;5494;51.796;10.952;2022-12-10T04:47:36;-0.70;99.90
10883;DHT22;5494;51.796;10.952;2022-12-10T04:50:04;-0.70;99.90
10883;DHT22;5494;51.796;10.952;2022-12-10T04:52:35;-0.60;99.90
10883;DHT22;5494;51.796;10.952;2022-12-10T04:55:03;-0.60;99.90
10883;DHT22;5494;51.796;10.952;2022-12-10T04:57:32;-0.50;99.90
10883;DHT22;5494;51.796;10.952;2022-12-10T05:00:00;-0.60;99.90
10883;DHT22;5494;51.796;10.952;2022-12-10T05:02:28;-0.70;99.90
10883;DHT22;5494;51.796;10.952;2022-12-10T05:04:56;-0.70;99.90
10883;DHT22;5494;51.796;10.952;2022-12-10T05:07:25;-0.60;99.90
10883;DHT22;5494;51.796;10.952;2022-12-10T05:09:54;-0.70;99.90
10883;DHT22;5494;51.796;10.952;2022-12-10T05:12:22;-0.70;99.90
10883;DHT22;5494;51.796;10.952;2022-12-10T05:14:50;-0.70;99.90
10883;DHT22;5494;51.796;10.952;2022-12-10T05:17:18;-0.70;99.90
10883;DHT22;5494;51.796;10.952;2022-12-10T05:19:46;-0.70;99.90
10883;DHT22;5494;51.796;10.952;2022-12-10T05:22:14;-0.70;99.90
10883;DHT22;5494;51.796;10.952;2022-12-10T05:25:01;-0.60;99.90
10883;DHT22;5494;51.796;10.952;2022-12-10T05:27:31;-0.70;99.90
10883;DHT22;5494;51.796;10.952;2022-12-10T05:29:59;-0.60;99.90
10883;DHT22;5494;51.796;10.952;2022-12-10T05:32:27;-0.50;99.90
10883;DHT22;5494;51.796;10.952;2022-12-10T05:34:56;-0.50;99.90
10883;DHT22;5494;51.796;10.952;2022-12-10T05:37:24;-0.60;99.90
10883;DHT22;5494;51.796;10.952;2022-12-10T05:39:52;-0.60;99.90
10883;DHT22;5494;51.796;10.952;2022-12-10T05:42:21;-0.60;99.90
10883;DHT22;5494;51.796;10.952;2022-12-10T05:44:49;-0.70;99.90
10883;DHT22;5494;51.796;10.952;2022-12-10T05:47:17;-0.70;99.90
10883;DHT22;5494;51.796;10.952;2022-12-10T05:49:45;-0.70;99.90
10883;DHT22;5494;51.796;10.952;2022-12-10T05:52:18;-0.60;99.90
10883;DHT22;5494;51.796;10.952;2022-12-10T05:54:46;-0.60;99.90
10883;DHT22;5494;51.796;10.952;2022-12-10T05:57:14;-0.60;99.90
10883;DHT22;5494;51.796;10.952;2022-12-10T05:59:43;-0.60;99.90
10883;DHT22;5494;51.796;10.952;2022-12-10T06:02:11;-0.60;99.90
10883;DHT22;5494;51.796;10.952;2022-12-10T06:04:39;-0.60;99.90
10883;DHT22;5494;51.796;10.952;2022-12-10T06:07:08;-0.60;99.90
10883;DHT22;5494;51.796;10.952;2022-12-10T06:09:37;-0.60;99.90
10883;DHT22;5494;51.796;10.952;2022-12-10T06:12:05;-0.60;99.90
10883;DHT22;5494;51.796;10.952;2022-12-10T06:14:33;-0.60;99.90
10883;DHT22;5494;51.796;10.952;2022-12-10T06:17:03;-0.50;99.90
10883;DHT22;5494;51.796;10.952;2022-12-10T06:19:31;-0.60;99.90
10883;DHT22;5494;51.796;10.952;2022-12-10T06:21:59;-0.60;99.90
10883;DHT22;5494;51.796;10.952;2022-12-10T06:24:28;-0.60;99.90
10883;DHT22;5494;51.796;10.952;2022-12-10T06:26:56;-0.60;99.90
10883;DHT22;5494;51.796;10.952;2022-12-10T06:29:25;-0.60;99.90
10883;DHT22;5494;51.796;10.952;2022-12-10T06:31:53;-0.60;99.90
10883;DHT22;5494;51.796;10.952;2022-12-10T06:34:23;-0.60;99.90
10883;DHT22;5494;51.796;10.952;2022-12-10T06:36:52;-0.60;99.90
10883;DHT22;5494;51.796;10.952;2022-12-10T06:39:21;-0.60;99.90
10883;DHT22;5494;51.796;10.952;2022-12-10T06:41:49;-0.60;99.90
10883;DHT22;5494;51.796;10.952;2022-12-10T06:44:24;-0.60;99.90
10883;DHT22;5494;51.796;10.952;2022-12-10T06:46:52;-0.60;99.90
10883;DHT22;5494;51.796;10.952;2022-12-10T06:49:20;-0.80;99.90
10883;DHT22;5494;51.796;10.952;2022-12-10T06:51:52;-0.80;99.90
10883;DHT22;5494;51.796;10.952;2022-12-10T06:54:21;-0.90;99.90
10883;DHT22;5494;51.796;10.952;2022-12-10T06:56:49;-0.90;99.90
10883;DHT22;5494;51.796;10.952;2022-12-10T06:59:17;-0.80;99.90
10883;DHT22;5494;51.796;10.952;2022-12-10T07:01:47;-0.70;99.90
10883;DHT22;5494;51.796;10.952;2022-12-10T07:04:15;-0.70;99.90
10883;DHT22;5494;51.796;10.952;2022-12-10T07:06:44;-0.60;99.90
10883;DHT22;5494;51.796;10.952;2022-12-10T07:09:13;-0.70;99.90
10883;DHT22;5494;51.796;10.952;2022-12-10T07:11:42;-0.70;99.90
10883;DHT22;5494;51.796;10.952;2022-12-10T07:14:13;-0.90;99.90
10883;DHT22;5494;51.796;10.952;2022-12-10T07:16:43;-0.80;99.90
10883;DHT22;5494;51.796;10.952;2022-12-10T07:19:12;-0.90;99.90
10883;DHT22;5494;51.796;10.952;2022-12-10T07:21:42;-0.90;99.90
10883;DHT22;5494;51.796;10.952;2022-12-10T07:24:13;-1.00;99.90
10883;DHT22;5494;51.796;10.952;2022-12-10T07:26:46;-1.00;99.90
10883;DHT22;5494;51.796;10.952;2022-12-10T07:29:16;-0.80;99.90
10883;DHT22;5494;51.796;10.952;2022-12-10T07:31:47;-0.70;99.90
10883;DHT22;5494;51.796;10.952;2022-12-10T07:34:16;-0.70;99.90
10883;DHT22;5494;51.796;10.952;2022-12-10T07:36:45;-0.70;99.90
10883;DHT22;5494;51.796;10.952;2022-12-10T07:39:13;-0.60;99.90
10883;DHT22;5494;51.796;10.952;2022-12-10T07:41:46;-0.70;99.90
10883;DHT22;5494;51.796;10.952;2022-12-10T07:44:17;-0.70;99.90
10883;DHT22;5494;51.796;10.952;2022-12-10T07:46:48;-0.80;99.90
10883;DHT22;5494;51.796;10.952;2022-12-10T07:49:18;-0.70;99.90
10883;DHT22;5494;51.796;10.952;2022-12-10T07:51:50;-0.60;99.90
10883;DHT22;5494;51.796;10.952;2022-12-10T07:54:20;-0.50;99.90
10883;DHT22;5494;51.796;10.952;2022-12-10T07:56:48;-0.50;99.90
10883;DHT22;5494;51.796;10.952;2022-12-10T07:59:16;-0.50;99.90
10883;DHT22;5494;51.796;10.952;2022-12-10T08:01:45;-0.40;99.90
10883;DHT22;5494;51.796;10.952;2022-12-10T08:04:13;-0.30;99.90
10883;DHT22;5494;51.796;10.952;2022-12-10T08:06:41;-0.30;99.90
10883;DHT22;5494;51.796;10.952;2022-12-10T08:09:10;-0.30;99.90
10883;DHT22;5494;51.796;10.952;2022-12-10T08:11:40;-0.20;99.90
10883;DHT22;5494;51.796;10.952;2022-12-10T08:14:08;-0.20;99.90
10883;DHT22;5494;51.796;10.952;2022-12-10T08:16:36;-0.10;99.90
10883;DHT22;5494;51.796;10.952;2022-12-10T08:19:04;-0.30;99.90
10883;DHT22;5494;51.796;10.952;2022-12-10T08:21:33;-0.10;99.90
10883;DHT22;5494;51.796;10.952;2022-12-10T08:24:01;-0.20;99.90
10883;DHT22;5494;51.796;10.952;2022-12-10T08:26:32;-0.20;99.90
10883;DHT22;5494;51.796;10.952;2022-12-10T08:29:02;-0.10;99.90
10883;DHT22;5494;51.796;10.952;2022-12-10T08:31:30;-0.10;99.90
10883;DHT22;5494;51.796;10.952;2022-12-10T08:34:04;0.00;99.90
10883;DHT22;5494;51.796;10.952;2022-12-10T08:36:32;0.10;99.90
10883;DHT22;5494;51.796;10.952;2022-12-10T08:39:01;0.10;99.90
10883;DHT22;5494;51.796;10.952;2022-12-10T08:41:29;0.20;99.90
10883;DHT22;5494;51.796;10.952;2022-12-10T08:43:57;0.20;99.90
10883;DHT22;5494;51.796;10.952;2022-12-10T08:46:26;0.20;99.90
10883;DHT22;5494;51.796;10.952;2022-12-10T08:48:56;0.20;99.90
10883;DHT22;5494;51.796;10.952;2022-12-10T08:51:26;0.10;99.90
10883;DHT22;5494;51.796;10.952;2022-12-10T08:53:55;0.00;99.90
10883;DHT22;5494;51.796;10.952;2022-12-10T08:56:23;0.00;99.90
10883;DHT22;5494;51.796;10.952;2022-12-10T08:58:51;0.00;99.90
10883;DHT22;5494;51.796;10.952;2022-12-10T09:01:19;0.10;99.90
10883;DHT22;5494;51.796;10.952;2022-12-10T09:03:49;0.30;99.90
10883;DHT22;5494;51.796;10.952;2022-12-10T09:06:20;0.40;99.90
10883;DHT22;5494;51.796;10.952;2022-12-10T09:08:52;0.50;99.90
10883;DHT22;5494;51.796;10.952;2022-12-10T09:11:23;0.60;99.90
10883;DHT22;5494;51.796;10.952;2022-12-10T09:13:52;0.70;99.90
10883;DHT22;5494;51.796;10.952;2022-12-10T09:16:21;0.80;99.90
10883;DHT22;5494;51.796;10.952;2022-12-10T09:18:56;0.90;99.90
10883;DHT22;5494;51.796;10.952;2022-12-10T09:21:24;0.90;99.90
10883;DHT22;5494;51.796;10.952;2022-12-10T09:23:53;0.80;99.90
10883;DHT22;5494;51.796;10.952;2022-12-10T09:26:25;0.80;99.90
10883;DHT22;5494;51.796;10.952;2022-12-10T09:28:53;0.80;99.90
10883;DHT22;5494;51.796;10.952;2022-12-10T09:31:24;0.80;99.90
10883;DHT22;5494;51.796;10.952;2022-12-10T09:33:53;0.80;99.90
10883;DHT22;5494;51.796;10.952;2022-12-10T09:36:23;0.60;99.90
10883;DHT22;5494;51.796;10.952;2022-12-10T09:38:58;0.40;99.90
10883;DHT22;5494;51.796;10.952;2022-12-10T09:41:45;1.30;99.90
10883;DHT22;5494;51.796;10.952;2022-12-10T09:44:31;0.00;99.90
10883;DHT22;5494;51.796;10.952;2022-12-10T09:47:10;-0.20;99.90
10883;DHT22;5494;51.796;10.952;2022-12-10T09:49:50;-0.20;99.90
10883;DHT22;5494;51.796;10.952;2022-12-10T09:52:32;-0.20;99.90
10883;DHT22;5494;51.796;10.952;2022-12-10T09:55:08;-0.20;99.90
10883;DHT22;5494;51.796;10.952;2022-12-10T09:57:44;-0.10;99.90
10883;DHT22;5494;51.796;10.952;2022-12-10T10:00:20;0.00;99.90
10883;DHT22;5494;51.796;10.952;2022-12-10T10:02:51;0.00;99.90
10883;DHT22;5494;51.796;10.952;2022-12-10T10:05:22;0.00;99.90
10883;DHT22;5494;51.796;10.952;2022-12-10T10:07:55;0.00;99.90
10883;DHT22;5494;51.796;10.952;2022-12-10T10:10:28;0.00;99.90
10883;DHT22;5494;51.796;10.952;2022-12-10T10:13:01;0.10;99.90
10883;DHT22;5494;51.796;10.952;2022-12-10T10:15:42;0.10;99.90
10883;DHT22;5494;51.796;10.952;2022-12-10T10:18:14;0.10;99.90
10883;DHT22;5494;51.796;10.952;2022-12-10T10:20:51;0.10;99.90
10883;DHT22;5494;51.796;10.952;2022-12-10T10:23:21;0.10;99.90
10883;DHT22;5494;51.796;10.952;2022-12-10T10:25:49;0.10;99.90
10883;DHT22;5494;51.796;10.952;2022-12-10T10:28:19;0.10;99.90
10883;DHT22;5494;51.796;10.952;2022-12-10T10:30:51;0.60;99.90
10883;DHT22;5494;51.796;10.952;2022-12-10T10:33:21;0.10;99.90
10883;DHT22;5494;51.796;10.952;2022-12-10T10:35:52;0.10;99.90
10883;DHT22;5494;51.796;10.952;2022-12-10T10:38:27;0.20;99.90
10883;DHT22;5494;51.796;10.952;2022-12-10T10:40:59;0.20;99.90
10883;DHT22;5494;51.796;10.952;2022-12-10T10:43:32;0.30;99.90
10883;DHT22;5494;51.796;10.952;2022-12-10T10:46:11;0.50;99.90
10883;DHT22;5494;51.796;10.952;2022-12-10T10:48:42;0.50;99.90
10883;DHT22;5494;51.796;10.952;2022-12-10T10:51:17;0.60;99.90
10883;DHT22;5494;51.796;10.952;2022-12-10T10:53:52;0.60;99.90
10883;DHT22;5494;51.796;10.952;2022-12-10T10:56:23;0.60;99.90
10883;DHT22;5494;51.796;10.952;2022-12-10T10:58:55;0.50;99.90
10883;DHT22;5494;51.796;10.952;2022-12-10T11:01:44;0.30;99.90
10883;DHT22;5494;51.796;10.952;2022-12-10T11:04:15;0.20;99.90
10883;DHT22;5494;51.796;10.952;2022-12-10T11:06:45;0.20;99.90
10883;DHT22;5494;51.796;10.952;2022-12-10T11:09:20;0.20;99.90
10883;DHT22;5494;51.796;10.952;2022-12-10T11:11:58;0.30;99.90
10883;DHT22;5494;51.796;10.952;2022-12-10T11:14:31;0.40;99.90
10883;DHT22;5494;51.796;10.952;2022-12-10T11:17:18;0.40;99.90
10883;DHT22;5494;51.796;10.952;2022-12-10T11:19:55;0.40;99.90
10883;DHT22;5494;51.796;10.952;2022-12-10T11:22:28;0.40;99.90
10883;DHT22;5494;51.796;10.952;2022-12-10T11:24:59;0.30;99.90
10883;DHT22;5494;51.796;10.952;2022-12-10T11:27:36;0.30;99.90
10883;DHT22;5494;51.796;10.952;2022-12-10T11:30:15;0.30;99.90
10883;DHT22;5494;51.796;10.952;2022-12-10T11:33:00;0.20;99.90
10883;DHT22;5494;51.796;10.952;2022-12-10T11:35:49;0.10;99.90
10883;DHT22;5494;51.796;10.952;2022-12-10T11:38:26;0.20;99.90
10883;DHT22;5494;51.796;10.952;2022-12-10T11:41:04;0.30;99.90
10883;DHT22;5494;51.796;10.952;2022-12-10T11:44:00;0.40;99.90
10883;DHT22;5494;51.796;10.952;2022-12-10T11:47:00;0.60;99.90
10883;DHT22;5494;51.796;10.952;2022-12-10T11:50:02;0.70;99.90
10883;DHT22;5494;51.796;10.952;2022-12-10T11:52:50;0.70;99.90
10883;DHT22;5494;51.796;10.952;2022-12-10T11:55:32;0.60;99.90
10883;DHT22;5494;51.796;10.952;2022-12-10T11:58:22;0.70;99.90
10883;DHT22;5494;51.796;10.952;2022-12-10T12:01:09;0.70;99.90
10883;DHT22;5494;51.796;10.952;2022-12-10T12:04:10;0.80;99.90
10883;DHT22;5494;51.796;10.952;2022-12-10T12:06:58;0.80;99.90
10883;DHT22;5494;51.796;10.952;2022-12-10T12:09:51;0.70;99.90
10883;DHT22;5494;51.796;10.952;2022-12-10T12:12:37;0.70;99.90
10883;DHT22;5494;51.796;10.952;2022-12-10T12:15:17;0.70;99.90
10883;DHT22;5494;51.796;10.952;2022-12-10T12:17:53;0.70;99.90
10883;DHT22;5494;51.796;10.952;2022-12-10T12:20:29;0.60;99.90
10883;DHT22;5494;51.796;10.952;2022-12-10T12:23:05;0.50;99.90
10883;DHT22;5494;51.796;10.952;2022-12-10T12:25:46;0.40;99.90
10883;DHT22;5494;51.796;10.952;2022-12-10T12:28:21;0.30;99.90
10883;DHT22;5494;51.796;10.952;2022-12-10T12:31:08;0.40;99.90
10883;DHT22;5494;51.796;10.952;2022-12-10T12:33:42;0.40;99.90
10883;DHT22;5494;51.796;10.952;2022-12-10T12:36:17;0.50;99.90
10883;DHT22;5494;51.796;10.952;2022-12-10T12:38:55;0.60;99.90
10883;DHT22;5494;51.796;10.952;2022-12-10T12:41:32;0.60;99.90
10883;DHT22;5494;51.796;10.952;2022-12-10T12:44:12;0.60;99.90
10883;DHT22;5494;51.796;10.952;2022-12-10T12:46:48;0.70;99.90
10883;DHT22;5494;51.796;10.952;2022-12-10T12:49:22;0.70;99.90
10883;DHT22;5494;51.796;10.952;2022-12-10T12:52:00;0.60;99.90
10883;DHT22;5494;51.796;10.952;2022-12-10T12:54:33;0.70;99.90
10883;DHT22;5494;51.796;10.952;2022-12-10T12:57:06;0.80;99.90
10883;DHT22;5494;51.796;10.952;2022-12-10T12:59:51;0.70;99.90
10883;DHT22;5494;51.796;10.952;2022-12-10T13:02:44;0.60;99.90
10883;DHT22;5494;51.796;10.952;2022-12-10T13:05:24;0.50;99.90
10883;DHT22;5494;51.796;10.952;2022-12-10T13:08:25;0.50;99.90
10883;DHT22;5494;51.796;10.952;2022-12-10T13:11:19;0.40;99.90
10883;DHT22;5494;51.796;10.952;2022-12-10T13:14:13;0.40;99.90
10883;DHT22;5494;51.796;10.952;2022-12-10T13:16:58;0.30;99.90
10883;DHT22;5494;51.796;10.952;2022-12-10T13:19:31;0.40;99.90
10883;DHT22;5494;51.796;10.952;2022-12-10T13:22:05;0.40;99.90
10883;DHT22;5494;51.796;10.952;2022-12-10T13:24:45;0.40;99.90
10883;DHT22;5494;51.796;10.952;2022-12-10T13:27:29;0.40;99.90
10883;DHT22;5494;51.796;10.952;2022-12-10T13:30:03;0.40;99.90
10883;DHT22;5494;51.796;10.952;2022-12-10T13:33:05;0.40;99.90
10883;DHT22;5494;51.796;10.952;2022-12-10T13:35:57;0.40;99.90
10883;DHT22;5494;51.796;10.952;2022-12-10T13:38:40;0.30;99.90
10883;DHT22;5494;51.796;10.952;2022-12-10T13:41:10;0.20;99.90
10883;DHT22;5494;51.796;10.952;2022-12-10T13:43:58;0.10;99.90
10883;DHT22;5494;51.796;10.952;2022-12-10T13:46:54;0.00;99.90
10883;DHT22;5494;51.796;10.952;2022-12-10T13:49:25;0.00;99.90
10883;DHT22;5494;51.796;10.952;2022-12-10T13:52:00;0.10;99.90
10883;DHT22;5494;51.796;10.952;2022-12-10T13:55:04;0.10;99.90
10883;DHT22;5494;51.796;10.952;2022-12-10T13:58:08;0.00;99.90
10883;DHT22;5494;51.796;10.952;2022-12-10T14:00:49;0.20;99.90
10883;DHT22;5494;51.796;10.952;2022-12-10T14:04:05;0.30;99.90
10883;DHT22;5494;51.796;10.952;2022-12-10T14:06:51;0.30;99.90
10883;DHT22;5494;51.796;10.952;2022-12-10T14:09:23;0.30;99.90
10883;DHT22;5494;51.796;10.952;2022-12-10T14:11:56;0.30;99.90
10883;DHT22;5494;51.796;10.952;2022-12-10T14:14:32;0.10;99.90
10883;DHT22;5494;51.796;10.952;2022-12-10T14:17:04;0.10;99.90
10883;DHT22;5494;51.796;10.952;2022-12-10T14:19:34;0.00;99.90
10883;DHT22;5494;51.796;10.952;2022-12-10T14:22:05;-0.20;99.90
10883;DHT22;5494;51.796;10.952;2022-12-10T14:24:37;-0.20;99.90
10883;DHT22;5494;51.796;10.952;2022-12-10T14:27:14;-0.20;99.90
10883;DHT22;5494;51.796;10.952;2022-12-10T14:29:45;-0.20;99.90
10883;DHT22;5494;51.796;10.952;2022-12-10T14:32:16;-0.20;99.90
10883;DHT22;5494;51.796;10.952;2022-12-10T14:34:51;-0.20;99.90
10883;DHT22;5494;51.796;10.952;2022-12-10T14:37:24;-0.20;99.90
10883;DHT22;5494;51.796;10.952;2022-12-10T14:39:56;-0.20;99.90
10883;DHT22;5494;51.796;10.952;2022-12-10T14:42:24;-0.20;99.90
10883;DHT22;5494;51.796;10.952;2022-12-10T14:44:57;-0.20;99.90
10883;DHT22;5494;51.796;10.952;2022-12-10T14:47:32;-0.20;99.90
10883;DHT22;5494;51.796;10.952;2022-12-10T14:50:12;-0.20;99.90
10883;DHT22;5494;51.796;10.952;2022-12-10T14:52:43;-0.30;99.90
10883;DHT22;5494;51.796;10.952;2022-12-10T14:55:20;-0.30;99.90
10883;DHT22;5494;51.796;10.952;2022-12-10T14:57:54;-0.30;99.90
10883;DHT22;5494;51.796;10.952;2022-12-10T15:00:27;-0.40;99.90
10883;DHT22;5494;51.796;10.952;2022-12-10T15:02:58;-0.40;99.90
10883;DHT22;5494;51.796;10.952;2022-12-10T15:05:30;-0.30;99.90
10883;DHT22;5494;51.796;10.952;2022-12-10T15:08:02;-0.30;99.90
10883;DHT22;5494;51.796;10.952;2022-12-10T15:10:35;0.10;99.90
10883;DHT22;5494;51.796;10.952;2022-12-10T15:13:06;-0.30;99.90
10883;DHT22;5494;51.796;10.952;2022-12-10T15:15:48;-0.20;99.90
10883;DHT22;5494;51.796;10.952;2022-12-10T15:18:20;-0.20;99.90
10883;DHT22;5494;51.796;10.952;2022-12-10T15:21:02;-0.20;99.90
10883;DHT22;5494;51.796;10.952;2022-12-10T15:23:34;-0.10;99.90
10883;DHT22;5494;51.796;10.952;2022-12-10T15:26:14;0.10;99.90
10883;DHT22;5494;51.796;10.952;2022-12-10T15:28:47;0.10;99.90
10883;DHT22;5494;51.796;10.952;2022-12-10T15:31:21;0.10;99.90
10883;DHT22;5494;51.796;10.952;2022-12-10T15:33:59;0.20;99.90
10883;DHT22;5494;51.796;10.952;2022-12-10T15:36:32;0.20;99.90
10883;DHT22;5494;51.796;10.952;2022-12-10T15:39:04;0.10;99.90
10883;DHT22;5494;51.796;10.952;2022-12-10T15:41:45;1.60;99.90
10883;DHT22;5494;51.796;10.952;2022-12-10T15:44:19;0.10;99.90
10883;DHT22;5494;51.796;10.952;2022-12-10T15:46:59;0.10;99.90
10883;DHT22;5494;51.796;10.952;2022-12-10T15:49:28;0.00;99.90
10883;DHT22;5494;51.796;10.952;2022-12-10T15:51:57;0.10;99.90
10883;DHT22;5494;51.796;10.952;2022-12-10T15:54:31;0.20;99.90
10883;DHT22;5494;51.796;10.952;2022-12-10T15:57:06;0.20;99.90
10883;DHT22;5494;51.796;10.952;2022-12-10T15:59:40;0.20;99.90
10883;DHT22;5494;51.796;10.952;2022-12-10T16:02:21;0.10;99.90
10883;DHT22;5494;51.796;10.952;2022-12-10T16:04:54;0.10;99.90
10883;DHT22;5494;51.796;10.952;2022-12-10T16:07:22;0.00;99.90
10883;DHT22;5494;51.796;10.952;2022-12-10T16:09:50;-0.20;99.90
10883;DHT22;5494;51.796;10.952;2022-12-10T16:12:20;-0.10;99.90
10883;DHT22;5494;51.796;10.952;2022-12-10T16:14:50;0.00;99.90
10883;DHT22;5494;51.796;10.952;2022-12-10T16:17:23;0.10;99.90
10883;DHT22;5494;51.796;10.952;2022-12-10T16:19:51;0.10;99.90
10883;DHT22;5494;51.796;10.952;2022-12-10T16:22:19;0.10;99.90